sensor_id;sensor_type;location;lat;lon;timestamp;temperature;humidity
9083;DHT22;4577;48.704;9.000;2023-01-05T00:01:49;9.60;98.50
9083;DHT22;4577;48.704;9.000;2023-01-05T00:04:14;9.80;98.70
9083;DHT22;4577;48.704;9.000;2023-01-05T00:06:41;9.70;98.70
9083;DHT22;4577;48.704;9.000;2023-01-05T00:09:08;9.80;98.80
9083;DHT22;4577;48.704;9.000;2023-01-05T00:14:25;9.80;98.50
9083;DHT22;4577;48.704;9.000;2023-01-05T00:17:11;9.80;98.50
9083;DHT22;4577;48.704;9.000;2023-01-05T00:22:46;9.80;98.60
9083;DHT22;4577;48.704;9.000;2023-01-05T00:25:33;9.80;98.90
9083;DHT22;4577;48.704;9.000;2023-01-05T00:28:00;9.80;98.80
9083;DHT22;4577;48.704;9.000;2023-01-05T00:30:31;9.90;99.80
9083;DHT22;4577;48.704;9.000;2023-01-05T00:32:57;9.90;98.80
9083;DHT22;4577;48.704;9.000;2023-01-05T00:35:23;9.70;98.80
9083;DHT22;4577;48.704;9.000;2023-01-05T00:37:51;9.80;99.20
9083;DHT22;4577;48.704;9.000;2023-01-05T00:40:19;9.80;99.10
9083;DHT22;4577;48.704;9.000;2023-01-05T00:42:45;9.80;99.60
9083;DHT22;4577;48.704;9.000;2023-01-05T00:45:15;9.80;99.50
9083;DHT22;4577;48.704;9.000;2023-01-05T00:47:41;9.80;99.30
9083;DHT22;4577;48.704;9.000;2023-01-05T00:50:09;9.70;99.40
9083;DHT22;4577;48.704;9.000;2023-01-05T00:52:37;9.80;99.60
9083;DHT22;4577;48.704;9.000;2023-01-05T00:55:03;9.80;99.70
9083;DHT22;4577;48.704;9.000;2023-01-05T00:57:28;10.30;99.50
9083;DHT22;4577;48.704;9.000;2023-01-05T00:59:54;9.90;99.90
9083;DHT22;4577;48.704;9.000;2023-01-05T01:02:20;9.90;99.80
9083;DHT22;4577;48.704;9.000;2023-01-05T01:04:47;9.70;99.80
9083;DHT22;4577;48.704;9.000;2023-01-05T01:07:13;9.70;99.80
9083;DHT22;4577;48.704;9.000;2023-01-05T01:09:44;9.80;99.90
9083;DHT22;4577;48.704;9.000;2023-01-05T01:12:10;9.80;99.90
9083;DHT22;4577;48.704;9.000;2023-01-05T01:24:27;9.90;99.90
9083;DHT22;4577;48.704;9.000;2023-01-05T01:26:54;9.90;99.90
9083;DHT22;4577;48.704;9.000;2023-01-05T01:29:21;9.80;99.90
9083;DHT22;4577;48.704;9.000;2023-01-05T01:31:49;9.80;99.90
9083;DHT22;4577;48.704;9.000;2023-01-05T01:34:18;9.80;99.90
9083;DHT22;4577;48.704;9.000;2023-01-05T01:36:48;9.80;99.90
9083;DHT22;4577;48.704;9.000;2023-01-05T01:39:14;9.80;99.90
9083;DHT22;4577;48.704;9.000;2023-01-05T01:41:39;9.90;99.90
9083;DHT22;4577;48.704;9.000;2023-01-05T01:50:23;9.90;99.90
9083;DHT22;4577;48.704;9.000;2023-01-05T01:52:48;9.90;99.90
9083;DHT22;4577;48.704;9.000;2023-01-05T01:55:18;9.90;99.90
9083;DHT22;4577;48.704;9.000;2023-01-05T01:57:46;9.90;99.90
9083;DHT22;4577;48.704;9.000;2023-01-05T02:00:12;10.00;99.80
9083;DHT22;4577;48.704;9.000;2023-01-05T02:02:42;9.80;99.90
9083;DHT22;4577;48.704;9.000;2023-01-05T02:05:10;9.90;99.90
9083;DHT22;4577;48.704;9.000;2023-01-05T02:07:42;9.80;99.90
9083;DHT22;4577;48.704;9.000;2023-01-05T02:10:13;9.80;99.90
9083;DHT22;4577;48.704;9.000;2023-01-05T02:13:02;9.90;99.90
9083;DHT22;4577;48.704;9.000;2023-01-05T02:15:59;9.90;99.90
9083;DHT22;4577;48.704;9.000;2023-01-05T02:18:59;9.90;99.90
9083;DHT22;4577;48.704;9.000;2023-01-05T02:32:59;9.90;99.90
9083;DHT22;4577;48.704;9.000;2023-01-05T02:38:28;9.90;99.90
9083;DHT22;4577;48.704;9.000;2023-01-05T02:40:58;9.90;99.90
9083;DHT22;4577;48.704;9.000;2023-01-05T02:43:27;10.00;99.90
9083;DHT22;4577;48.704;9.000;2023-01-05T02:45:53;10.00;99.90
9083;DHT22;4577;48.704;9.000;2023-01-05T02:48:20;10.00;99.90
9083;DHT22;4577;48.704;9.000;2023-01-05T02:50:59;10.00;99.90
9083;DHT22;4577;48.704;9.000;2023-01-05T02:53:31;10.10;99.90
9083;DHT22;4577;48.704;9.000;2023-01-05T02:56:23;10.00;99.90
9083;DHT22;4577;48.704;9.000;2023-01-05T02:59:26;10.00;99.90
9083;DHT22;4577;48.704;9.000;2023-01-05T03:02:00;9.80;99.90
9083;DHT22;4577;48.704;9.000;2023-01-05T03:04:37;9.90;99.90
9083;DHT22;4577;48.704;9.000;2023-01-05T03:07:12;10.10;99.90
9083;DHT22;4577;48.704;9.000;2023-01-05T03:09:46;10.10;99.90
9083;DHT22;4577;48.704;9.000;2023-01-05T03:15:19;10.10;99.90
9083;DHT22;4577;48.704;9.000;2023-01-05T03:17:49;10.10;99.90
9083;DHT22;4577;48.704;9.000;2023-01-05T03:20:18;10.10;99.90
9083;DHT22;4577;48.704;9.000;2023-01-05T03:22:46;10.20;99.90
9083;DHT22;4577;48.704;9.000;2023-01-05T03:25:33;10.10;99.90
9083;DHT22;4577;48.704;9.000;2023-01-05T03:28:26;10.40;99.90
9083;DHT22;4577;48.704;9.000;2023-01-05T03:31:16;10.20;99.90
9083;DHT22;4577;48.704;9.000;2023-01-05T03:34:52;10.30;99.90
9083;DHT22;4577;48.704;9.000;2023-01-05T03:37:20;10.30;99.90
9083;DHT22;4577;48.704;9.000;2023-01-05T03:39:46;10.30;99.90
9083;DHT22;4577;48.704;9.000;2023-01-05T03:42:13;10.30;99.90
9083;DHT22;4577;48.704;9.000;2023-01-05T03:44:43;10.30;99.90
9083;DHT22;4577;48.704;9.000;2023-01-05T03:47:09;10.30;99.90
9083;DHT22;4577;48.704;9.000;2023-01-05T03:49:36;10.50;99.90
9083;DHT22;4577;48.704;9.000;2023-01-05T03:54:28;10.40;99.90
9083;DHT22;4577;48.704;9.000;2023-01-05T03:56:53;10.50;99.90
9083;DHT22;4577;48.704;9.000;2023-01-05T03:59:19;10.40;99.90
9083;DHT22;4577;48.704;9.000;2023-01-05T04:01:45;10.40;99.80
9083;DHT22;4577;48.704;9.000;2023-01-05T04:04:11;10.50;99.60
9083;DHT22;4577;48.704;9.000;2023-01-05T04:09:05;10.50;99.50
9083;DHT22;4577;48.704;9.000;2023-01-05T04:11:31;10.60;99.40
9083;DHT22;4577;48.704;9.000;2023-01-05T04:18:49;10.70;99.20
9083;DHT22;4577;48.704;9.000;2023-01-05T04:23:44;10.60;99.20
9083;DHT22;4577;48.704;9.000;2023-01-05T04:28:36;10.60;99.40
9083;DHT22;4577;48.704;9.000;2023-01-05T04:31:02;10.60;99.40
9083;DHT22;4577;48.704;9.000;2023-01-05T04:33:27;10.70;99.40
9083;DHT22;4577;48.704;9.000;2023-01-05T04:35:53;10.70;99.40
9083;DHT22;4577;48.704;9.000;2023-01-05T04:38:19;10.70;99.50
9083;DHT22;4577;48.704;9.000;2023-01-05T04:40:51;10.70;99.50
9083;DHT22;4577;48.704;9.000;2023-01-05T04:43:18;10.80;99.50
9083;DHT22;4577;48.704;9.000;2023-01-05T04:45:47;10.70;99.50
9083;DHT22;4577;48.704;9.000;2023-01-05T04:48:14;10.70;99.50
9083;DHT22;4577;48.704;9.000;2023-01-05T04:50:39;10.70;99.50
9083;DHT22;4577;48.704;9.000;2023-01-05T04:53:05;10.70;99.70
9083;DHT22;4577;48.704;9.000;2023-01-05T05:05:15;10.60;99.90
9083;DHT22;4577;48.704;9.000;2023-01-05T05:07:41;10.80;99.90
9083;DHT22;4577;48.704;9.000;2023-01-05T05:10:07;10.60;99.90
9083;DHT22;4577;48.704;9.000;2023-01-05T05:12:33;10.60;99.90
9083;DHT22;4577;48.704;9.000;2023-01-05T05:14:59;10.70;99.90
9083;DHT22;4577;48.704;9.000;2023-01-05T05:17:24;10.60;99.90
9083;DHT22;4577;48.704;9.000;2023-01-05T05:19:50;10.50;99.90
9083;DHT22;4577;48.704;9.000;2023-01-05T05:22:16;10.60;99.90
9083;DHT22;4577;48.704;9.000;2023-01-05T05:24:41;10.60;99.90
9083;DHT22;4577;48.704;9.000;2023-01-05T05:31:59;10.60;99.90
9083;DHT22;4577;48.704;9.000;2023-01-05T05:34:24;10.50;99.90
9083;DHT22;4577;48.704;9.000;2023-01-05T05:39:19;10.50;99.90
9083;DHT22;4577;48.704;9.000;2023-01-05T05:41:45;10.50;99.90
9083;DHT22;4577;48.704;9.000;2023-01-05T05:46:39;10.50;99.90
9083;DHT22;4577;48.704;9.000;2023-01-05T05:49:05;10.50;99.90
9083;DHT22;4577;48.704;9.000;2023-01-05T05:51:33;10.50;99.90
9083;DHT22;4577;48.704;9.000;2023-01-05T05:53:59;10.50;99.90
9083;DHT22;4577;48.704;9.000;2023-01-05T05:56:25;10.50;99.90
9083;DHT22;4577;48.704;9.000;2023-01-05T06:01:16;10.40;99.90
9083;DHT22;4577;48.704;9.000;2023-01-05T06:03:42;10.50;99.90
9083;DHT22;4577;48.704;9.000;2023-01-05T06:06:08;10.50;99.90
9083;DHT22;4577;48.704;9.000;2023-01-05T06:11:00;10.40;99.90
9083;DHT22;4577;48.704;9.000;2023-01-05T06:13:26;10.40;99.90
9083;DHT22;4577;48.704;9.000;2023-01-05T06:15:51;10.50;99.90
9083;DHT22;4577;48.704;9.000;2023-01-05T06:20:43;10.40;99.90
9083;DHT22;4577;48.704;9.000;2023-01-05T06:23:09;10.40;99.90
9083;DHT22;4577;48.704;9.000;2023-01-05T06:25:35;10.40;99.90
9083;DHT22;4577;48.704;9.000;2023-01-05T06:28:01;10.50;99.90
9083;DHT22;4577;48.704;9.000;2023-01-05T06:30:27;10.40;99.90
9083;DHT22;4577;48.704;9.000;2023-01-05T06:37:44;10.40;99.90
9083;DHT22;4577;48.704;9.000;2023-01-05T06:40:10;10.40;99.90
9083;DHT22;4577;48.704;9.000;2023-01-05T06:42:37;10.40;99.90
9083;DHT22;4577;48.704;9.000;2023-01-05T06:45:05;10.40;99.90
9083;DHT22;4577;48.704;9.000;2023-01-05T06:47:30;10.40;99.90
9083;DHT22;4577;48.704;9.000;2023-01-05T06:49:56;10.40;99.90
9083;DHT22;4577;48.704;9.000;2023-01-05T06:52:31;10.30;99.90
9083;DHT22;4577;48.704;9.000;2023-01-05T06:57:30;10.20;99.90
9083;DHT22;4577;48.704;9.000;2023-01-05T07:04:48;10.00;99.90
9083;DHT22;4577;48.704;9.000;2023-01-05T07:07:14;9.80;99.90
9083;DHT22;4577;48.704;9.000;2023-01-05T07:09:41;10.10;99.90
9083;DHT22;4577;48.704;9.000;2023-01-05T07:12:09;10.00;99.90
9083;DHT22;4577;48.704;9.000;2023-01-05T07:14:38;10.10;99.90
9083;DHT22;4577;48.704;9.000;2023-01-05T07:17:03;10.10;99.90
9083;DHT22;4577;48.704;9.000;2023-01-05T07:19:29;10.10;99.90
9083;DHT22;4577;48.704;9.000;2023-01-05T07:21:56;10.20;99.90
9083;DHT22;4577;48.704;9.000;2023-01-05T07:26:48;10.10;99.40
9083;DHT22;4577;48.704;9.000;2023-01-05T07:31:40;10.20;98.10
9083;DHT22;4577;48.704;9.000;2023-01-05T07:34:08;10.30;97.50
9083;DHT22;4577;48.704;9.000;2023-01-05T07:39:00;10.30;96.60
9083;DHT22;4577;48.704;9.000;2023-01-05T07:43:52;10.30;96.30
9083;DHT22;4577;48.704;9.000;2023-01-05T07:46:17;10.30;95.90
9083;DHT22;4577;48.704;9.000;2023-01-05T07:51:09;10.40;95.30
9083;DHT22;4577;48.704;9.000;2023-01-05T07:53:36;10.50;95.30
9083;DHT22;4577;48.704;9.000;2023-01-05T07:56:04;10.40;94.90
9083;DHT22;4577;48.704;9.000;2023-01-05T08:08:15;10.40;94.50
9083;DHT22;4577;48.704;9.000;2023-01-05T08:10:42;10.40;94.50
9083;DHT22;4577;48.704;9.000;2023-01-05T08:13:09;10.50;94.30
9083;DHT22;4577;48.704;9.000;2023-01-05T08:15:54;10.80;93.90
9083;DHT22;4577;48.704;9.000;2023-01-05T08:18:21;10.50;93.60
9083;DHT22;4577;48.704;9.000;2023-01-05T08:20:58;10.50;93.50
9083;DHT22;4577;48.704;9.000;2023-01-05T08:23:26;10.50;93.50
9083;DHT22;4577;48.704;9.000;2023-01-05T08:33:12;10.50;92.70
9083;DHT22;4577;48.704;9.000;2023-01-05T08:35:42;10.70;92.80
9083;DHT22;4577;48.704;9.000;2023-01-05T08:38:08;10.40;92.80
9083;DHT22;4577;48.704;9.000;2023-01-05T08:40:36;10.50;92.60
9083;DHT22;4577;48.704;9.000;2023-01-05T08:45:28;10.50;92.50
9083;DHT22;4577;48.704;9.000;2023-01-05T09:12:15;10.40;91.20
9083;DHT22;4577;48.704;9.000;2023-01-05T09:14:41;10.20;91.30
9083;DHT22;4577;48.704;9.000;2023-01-05T09:17:07;9.80;91.40
9083;DHT22;4577;48.704;9.000;2023-01-05T09:26:51;10.40;90.40
9083;DHT22;4577;48.704;9.000;2023-01-05T09:29:16;10.20;90.20
9083;DHT22;4577;48.704;9.000;2023-01-05T09:31:42;10.30;90.30
9083;DHT22;4577;48.704;9.000;2023-01-05T09:34:09;10.30;90.20
9083;DHT22;4577;48.704;9.000;2023-01-05T09:36:36;10.30;90.00
9083;DHT22;4577;48.704;9.000;2023-01-05T09:39:03;10.30;89.90
9083;DHT22;4577;48.704;9.000;2023-01-05T09:41:37;10.30;89.60
9083;DHT22;4577;48.704;9.000;2023-01-05T09:44:09;10.70;89.60
9083;DHT22;4577;48.704;9.000;2023-01-05T09:46:39;10.30;89.10
9083;DHT22;4577;48.704;9.000;2023-01-05T09:49:09;10.30;88.60
9083;DHT22;4577;48.704;9.000;2023-01-05T09:59:19;10.40;87.40
9083;DHT22;4577;48.704;9.000;2023-01-05T10:01:46;10.40;86.50
9083;DHT22;4577;48.704;9.000;2023-01-05T10:04:23;10.40;86.30
9083;DHT22;4577;48.704;9.000;2023-01-05T10:09:20;10.50;85.30
9083;DHT22;4577;48.704;9.000;2023-01-05T10:17:12;10.50;85.70
9083;DHT22;4577;48.704;9.000;2023-01-05T10:27:29;10.70;84.70
9083;DHT22;4577;48.704;9.000;2023-01-05T10:30:36;10.60;84.40
9083;DHT22;4577;48.704;9.000;2023-01-05T10:33:02;10.60;83.70
9083;DHT22;4577;48.704;9.000;2023-01-05T10:35:58;10.60;83.60
9083;DHT22;4577;48.704;9.000;2023-01-05T10:51:20;10.70;82.00
9083;DHT22;4577;48.704;9.000;2023-01-05T10:53:46;10.80;81.60
9083;DHT22;4577;48.704;9.000;2023-01-05T10:56:20;10.80;81.50
9083;DHT22;4577;48.704;9.000;2023-01-05T10:58:47;10.80;81.10
9083;DHT22;4577;48.704;9.000;2023-01-05T11:01:27;10.80;81.50
9083;DHT22;4577;48.704;9.000;2023-01-05T11:04:03;10.70;79.70
9083;DHT22;4577;48.704;9.000;2023-01-05T11:06:32;10.90;80.70
9083;DHT22;4577;48.704;9.000;2023-01-05T11:09:22;10.80;78.60
9083;DHT22;4577;48.704;9.000;2023-01-05T11:12:01;10.90;78.90
9083;DHT22;4577;48.704;9.000;2023-01-05T11:14:41;10.90;78.70
9083;DHT22;4577;48.704;9.000;2023-01-05T11:17:16;10.80;77.50
9083;DHT22;4577;48.704;9.000;2023-01-05T11:19:46;10.80;78.10
9083;DHT22;4577;48.704;9.000;2023-01-05T11:22:36;10.70;78.40
9083;DHT22;4577;48.704;9.000;2023-01-05T11:25:18;10.80;78.30
9083;DHT22;4577;48.704;9.000;2023-01-05T11:30:30;10.60;78.50
9083;DHT22;4577;48.704;9.000;2023-01-05T11:35:32;10.80;78.10
9083;DHT22;4577;48.704;9.000;2023-01-05T11:38:01;10.80;77.50
9083;DHT22;4577;48.704;9.000;2023-01-05T11:40:29;10.90;77.60
9083;DHT22;4577;48.704;9.000;2023-01-05T11:45:24;10.70;76.40
9083;DHT22;4577;48.704;9.000;2023-01-05T11:48:01;10.90;77.10
9083;DHT22;4577;48.704;9.000;2023-01-05T11:50:41;11.00;76.90
9083;DHT22;4577;48.704;9.000;2023-01-05T11:53:38;10.90;76.70
9083;DHT22;4577;48.704;9.000;2023-01-05T11:58:47;11.00;76.60
9083;DHT22;4577;48.704;9.000;2023-01-05T12:09:33;10.80;76.80
9083;DHT22;4577;48.704;9.000;2023-01-05T12:14:45;11.00;76.80
9083;DHT22;4577;48.704;9.000;2023-01-05T12:17:14;10.90;76.70
9083;DHT22;4577;48.704;9.000;2023-01-05T12:19:59;10.90;77.00
9083;DHT22;4577;48.704;9.000;2023-01-05T12:25:34;11.10;77.80
9083;DHT22;4577;48.704;9.000;2023-01-05T12:28:30;10.60;77.20
9083;DHT22;4577;48.704;9.000;2023-01-05T12:49:43;10.80;79.30
9083;DHT22;4577;48.704;9.000;2023-01-05T12:52:27;10.80;79.00
9083;DHT22;4577;48.704;9.000;2023-01-05T12:55:15;10.90;79.30
9083;DHT22;4577;48.704;9.000;2023-01-05T12:58:05;10.80;78.60
9083;DHT22;4577;48.704;9.000;2023-01-05T13:00:33;10.70;78.80
9083;DHT22;4577;48.704;9.000;2023-01-05T13:03:02;10.80;79.40
9083;DHT22;4577;48.704;9.000;2023-01-05T13:13:27;11.00;77.70
9083;DHT22;4577;48.704;9.000;2023-01-05T13:16:03;10.80;77.60
9083;DHT22;4577;48.704;9.000;2023-01-05T13:18:31;10.90;77.20
9083;DHT22;4577;48.704;9.000;2023-01-05T13:21:01;10.90;77.80
9083;DHT22;4577;48.704;9.000;2023-01-05T13:23:31;10.80;78.00
9083;DHT22;4577;48.704;9.000;2023-01-05T13:26:06;10.90;78.20
9083;DHT22;4577;48.704;9.000;2023-01-05T13:42:26;10.80;78.40
9083;DHT22;4577;48.704;9.000;2023-01-05T13:47:27;10.80;78.40
9083;DHT22;4577;48.704;9.000;2023-01-05T13:53:10;10.80;77.90
9083;DHT22;4577;48.704;9.000;2023-01-05T13:55:47;10.60;77.80
9083;DHT22;4577;48.704;9.000;2023-01-05T14:01:18;10.70;77.90
9083;DHT22;4577;48.704;9.000;2023-01-05T14:03:54;10.70;78.10
9083;DHT22;4577;48.704;9.000;2023-01-05T14:06:23;10.80;78.20
9083;DHT22;4577;48.704;9.000;2023-01-05T14:08:56;10.80;78.40
9083;DHT22;4577;48.704;9.000;2023-01-05T14:11:24;10.70;78.30
9083;DHT22;4577;48.704;9.000;2023-01-05T14:13:56;10.70;78.40
9083;DHT22;4577;48.704;9.000;2023-01-05T14:19:12;10.90;79.00
9083;DHT22;4577;48.704;9.000;2023-01-05T14:24:33;10.70;78.90
9083;DHT22;4577;48.704;9.000;2023-01-05T14:37:54;10.70;78.40
9083;DHT22;4577;48.704;9.000;2023-01-05T14:42:59;10.80;78.40
9083;DHT22;4577;48.704;9.000;2023-01-05T14:45:36;10.70;78.50
9083;DHT22;4577;48.704;9.000;2023-01-05T14:48:05;10.80;78.50
9083;DHT22;4577;48.704;9.000;2023-01-05T15:02:16;10.80;78.90
9083;DHT22;4577;48.704;9.000;2023-01-05T15:04:35;6.50;76.40
9083;DHT22;4577;48.704;9.000;2023-01-05T15:18:21;10.70;79.80
9083;DHT22;4577;48.704;9.000;2023-01-05T15:34:35;10.70;80.80
9083;DHT22;4577;48.704;9.000;2023-01-05T15:37:21;10.70;80.90
9083;DHT22;4577;48.704;9.000;2023-01-05T15:39:50;10.70;81.20
9083;DHT22;4577;48.704;9.000;2023-01-05T15:42:19;10.70;81.20
9083;DHT22;4577;48.704;9.000;2023-01-05T15:44:48;10.50;81.00
9083;DHT22;4577;48.704;9.000;2023-01-05T15:47:16;10.70;81.70
9083;DHT22;4577;48.704;9.000;2023-01-05T15:49:44;10.60;81.80
9083;DHT22;4577;48.704;9.000;2023-01-05T15:55:15;10.70;82.20
9083;DHT22;4577;48.704;9.000;2023-01-05T16:00:15;10.60;82.30
9083;DHT22;4577;48.704;9.000;2023-01-05T16:02:41;10.60;82.40
9083;DHT22;4577;48.704;9.000;2023-01-05T16:05:16;10.60;82.50
9083;DHT22;4577;48.704;9.000;2023-01-05T16:07:45;10.50;82.60
9083;DHT22;4577;48.704;9.000;2023-01-05T16:12:52;10.50;83.00
9083;DHT22;4577;48.704;9.000;2023-01-05T16:15:20;10.50;83.10
9083;DHT22;4577;48.704;9.000;2023-01-05T16:17:50;10.60;83.10
9083;DHT22;4577;48.704;9.000;2023-01-05T16:20:19;10.60;83.30
9083;DHT22;4577;48.704;9.000;2023-01-05T16:22:59;10.60;83.20
9083;DHT22;4577;48.704;9.000;2023-01-05T16:25:29;10.50;83.30
9083;DHT22;4577;48.704;9.000;2023-01-05T16:28:01;10.50;83.50
9083;DHT22;4577;48.704;9.000;2023-01-05T16:33:03;10.50;83.80
9083;DHT22;4577;48.704;9.000;2023-01-05T16:35:44;10.50;83.60
9083;DHT22;4577;48.704;9.000;2023-01-05T16:45:42;10.50;84.20
9083;DHT22;4577;48.704;9.000;2023-01-05T16:53:33;10.60;84.70
9083;DHT22;4577;48.704;9.000;2023-01-05T16:56:00;10.60;84.60
9083;DHT22;4577;48.704;9.000;2023-01-05T17:01:22;10.70;84.80
9083;DHT22;4577;48.704;9.000;2023-01-05T17:03:50;10.70;84.50
9083;DHT22;4577;48.704;9.000;2023-01-05T17:06:27;10.70;84.60
9083;DHT22;4577;48.704;9.000;2023-01-05T17:08:59;10.60;84.70
9083;DHT22;4577;48.704;9.000;2023-01-05T17:11:36;10.60;85.00
9083;DHT22;4577;48.704;9.000;2023-01-05T17:18:58;10.70;84.70
9083;DHT22;4577;48.704;9.000;2023-01-05T17:21:26;10.60;84.90
9083;DHT22;4577;48.704;9.000;2023-01-05T17:23:56;10.70;85.00
9083;DHT22;4577;48.704;9.000;2023-01-05T17:28:50;10.70;85.00
9083;DHT22;4577;48.704;9.000;2023-01-05T17:33:42;10.50;84.80
9083;DHT22;4577;48.704;9.000;2023-01-05T17:38:34;10.80;85.00
9083;DHT22;4577;48.704;9.000;2023-01-05T17:41:00;10.80;84.80
9083;DHT22;4577;48.704;9.000;2023-01-05T17:43:25;10.80;84.70
9083;DHT22;4577;48.704;9.000;2023-01-05T17:45:51;10.80;84.80
9083;DHT22;4577;48.704;9.000;2023-01-05T17:50:44;10.70;85.00
9083;DHT22;4577;48.704;9.000;2023-01-05T17:53:10;10.90;85.20
9083;DHT22;4577;48.704;9.000;2023-01-05T17:55:36;10.70;85.10
9083;DHT22;4577;48.704;9.000;2023-01-05T17:58:01;10.70;85.20
9083;DHT22;4577;48.704;9.000;2023-01-05T18:00:30;10.70;85.20
9083;DHT22;4577;48.704;9.000;2023-01-05T18:02:59;10.80;86.00
9083;DHT22;4577;48.704;9.000;2023-01-05T18:07:51;10.80;85.40
9083;DHT22;4577;48.704;9.000;2023-01-05T18:10:21;10.80;85.40
9083;DHT22;4577;48.704;9.000;2023-01-05T18:15:14;10.70;85.70
9083;DHT22;4577;48.704;9.000;2023-01-05T18:17:40;10.80;85.90
9083;DHT22;4577;48.704;9.000;2023-01-05T18:22:33;10.80;86.40
9083;DHT22;4577;48.704;9.000;2023-01-05T18:39:36;10.80;87.70
9083;DHT22;4577;48.704;9.000;2023-01-05T18:49:20;10.70;88.10
9083;DHT22;4577;48.704;9.000;2023-01-05T18:51:49;10.70;88.60
9083;DHT22;4577;48.704;9.000;2023-01-05T18:56:40;10.90;89.00
9083;DHT22;4577;48.704;9.000;2023-01-05T18:59:06;10.80;88.90
9083;DHT22;4577;48.704;9.000;2023-01-05T19:01:32;10.80;89.30
9083;DHT22;4577;48.704;9.000;2023-01-05T19:06:26;10.70;89.50
9083;DHT22;4577;48.704;9.000;2023-01-05T19:08:51;10.70;89.60
9083;DHT22;4577;48.704;9.000;2023-01-05T19:11:22;10.40;89.90
9083;DHT22;4577;48.704;9.000;2023-01-05T19:13:48;10.60;90.00
9083;DHT22;4577;48.704;9.000;2023-01-05T19:16:16;10.60;90.20
9083;DHT22;4577;48.704;9.000;2023-01-05T19:21:08;10.70;90.40
9083;DHT22;4577;48.704;9.000;2023-01-05T19:23:34;10.70;90.30
9083;DHT22;4577;48.704;9.000;2023-01-05T19:26:04;10.70;90.30
9083;DHT22;4577;48.704;9.000;2023-01-05T19:28:33;10.60;90.30
9083;DHT22;4577;48.704;9.000;2023-01-05T19:31:05;10.40;90.50
9083;DHT22;4577;48.704;9.000;2023-01-05T19:36:06;10.50;90.90
9083;DHT22;4577;48.704;9.000;2023-01-05T19:38:32;10.50;90.80
9083;DHT22;4577;48.704;9.000;2023-01-05T19:41:14;10.50;90.80
9083;DHT22;4577;48.704;9.000;2023-01-05T19:43:40;10.30;90.70
9083;DHT22;4577;48.704;9.000;2023-01-05T19:46:10;10.60;90.80
9083;DHT22;4577;48.704;9.000;2023-01-05T19:48:36;10.70;90.80
9083;DHT22;4577;48.704;9.000;2023-01-05T19:51:05;10.70;90.80
9083;DHT22;4577;48.704;9.000;2023-01-05T19:53:33;10.70;90.80
9083;DHT22;4577;48.704;9.000;2023-01-05T19:56:08;10.60;90.90
9083;DHT22;4577;48.704;9.000;2023-01-05T19:58:34;10.60;91.20
9083;DHT22;4577;48.704;9.000;2023-01-05T20:01:14;11.00;91.10
9083;DHT22;4577;48.704;9.000;2023-01-05T20:03:41;10.50;91.10
9083;DHT22;4577;48.704;9.000;2023-01-05T20:06:18;10.70;91.30
9083;DHT22;4577;48.704;9.000;2023-01-05T20:08:45;10.60;91.10
9083;DHT22;4577;48.704;9.000;2023-01-05T20:11:19;10.40;91.30
9083;DHT22;4577;48.704;9.000;2023-01-05T20:13:49;10.50;91.40
9083;DHT22;4577;48.704;9.000;2023-01-05T20:16:15;10.50;91.60
9083;DHT22;4577;48.704;9.000;2023-01-05T20:18:41;10.50;91.60
9083;DHT22;4577;48.704;9.000;2023-01-05T20:23:38;10.50;92.30
9083;DHT22;4577;48.704;9.000;2023-01-05T20:26:14;10.50;92.20
9083;DHT22;4577;48.704;9.000;2023-01-05T20:28:41;10.30;92.30
9083;DHT22;4577;48.704;9.000;2023-01-05T20:31:37;10.50;92.40
9083;DHT22;4577;48.704;9.000;2023-01-05T20:34:10;10.50;92.60
9083;DHT22;4577;48.704;9.000;2023-01-05T20:39:04;10.40;93.20
9083;DHT22;4577;48.704;9.000;2023-01-05T20:41:34;10.40;93.60
9083;DHT22;4577;48.704;9.000;2023-01-05T20:44:01;10.30;93.80
9083;DHT22;4577;48.704;9.000;2023-01-05T20:46:32;10.50;93.80
9083;DHT22;4577;48.704;9.000;2023-01-05T20:48:58;10.50;93.90
9083;DHT22;4577;48.704;9.000;2023-01-05T20:51:25;10.50;93.90
9083;DHT22;4577;48.704;9.000;2023-01-05T20:53:52;10.40;94.10
9083;DHT22;4577;48.704;9.000;2023-01-05T20:56:21;10.50;94.30
9083;DHT22;4577;48.704;9.000;2023-01-05T20:58:49;10.50;94.40
9083;DHT22;4577;48.704;9.000;2023-01-05T21:01:15;10.50;94.20
9083;DHT22;4577;48.704;9.000;2023-01-05T21:03:41;10.40;94.20
9083;DHT22;4577;48.704;9.000;2023-01-05T21:06:08;10.50;94.60
9083;DHT22;4577;48.704;9.000;2023-01-05T21:11:02;10.40;94.80
9083;DHT22;4577;48.704;9.000;2023-01-05T21:16:02;10.40;95.30
9083;DHT22;4577;48.704;9.000;2023-01-05T21:18:29;10.30;95.50
9083;DHT22;4577;48.704;9.000;2023-01-05T21:20:55;10.40;95.60
9083;DHT22;4577;48.704;9.000;2023-01-05T21:23:21;10.50;95.60
9083;DHT22;4577;48.704;9.000;2023-01-05T21:25:49;10.30;95.70
9083;DHT22;4577;48.704;9.000;2023-01-05T21:28:16;10.70;96.20
9083;DHT22;4577;48.704;9.000;2023-01-05T21:30:43;10.80;96.10
9083;DHT22;4577;48.704;9.000;2023-01-05T21:35:35;10.30;95.80
9083;DHT22;4577;48.704;9.000;2023-01-05T21:40:27;10.00;95.90
9083;DHT22;4577;48.704;9.000;2023-01-05T21:42:54;10.20;96.10
9083;DHT22;4577;48.704;9.000;2023-01-05T21:47:52;10.30;95.90
9083;DHT22;4577;48.704;9.000;2023-01-05T21:53:03;10.40;95.50
9083;DHT22;4577;48.704;9.000;2023-01-05T21:55:48;10.40;96.30
9083;DHT22;4577;48.704;9.000;2023-01-05T21:58:32;10.40;95.80
9083;DHT22;4577;48.704;9.000;2023-01-05T22:00:59;10.50;95.70
9083;DHT22;4577;48.704;9.000;2023-01-05T22:05:51;10.50;95.60
9083;DHT22;4577;48.704;9.000;2023-01-05T22:08:17;10.40;95.70
9083;DHT22;4577;48.704;9.000;2023-01-05T22:10:43;10.30;95.50
9083;DHT22;4577;48.704;9.000;2023-01-05T22:13:08;10.40;95.80
9083;DHT22;4577;48.704;9.000;2023-01-05T22:15:35;10.40;95.70
9083;DHT22;4577;48.704;9.000;2023-01-05T22:20:28;10.50;95.70
9083;DHT22;4577;48.704;9.000;2023-01-05T22:25:19;10.40;95.60
9083;DHT22;4577;48.704;9.000;2023-01-05T22:30:11;10.30;95.70
9083;DHT22;4577;48.704;9.000;2023-01-05T22:35:04;10.30;95.90
9083;DHT22;4577;48.704;9.000;2023-01-05T22:37:30;10.20;96.10
9083;DHT22;4577;48.704;9.000;2023-01-05T22:39:55;10.20;96.20
9083;DHT22;4577;48.704;9.000;2023-01-05T22:42:21;10.30;95.80
9083;DHT22;4577;48.704;9.000;2023-01-05T22:44:47;10.30;95.90
9083;DHT22;4577;48.704;9.000;2023-01-05T22:47:12;10.40;95.80
9083;DHT22;4577;48.704;9.000;2023-01-05T22:49:38;10.40;95.50
9083;DHT22;4577;48.704;9.000;2023-01-05T22:52:03;10.40;95.60
9083;DHT22;4577;48.704;9.000;2023-01-05T22:54:29;10.30;95.60
9083;DHT22;4577;48.704;9.000;2023-01-05T22:56:56;10.60;95.80
9083;DHT22;4577;48.704;9.000;2023-01-05T22:59:22;10.30;95.60
9083;DHT22;4577;48.704;9.000;2023-01-05T23:01:47;10.10;95.40
9083;DHT22;4577;48.704;9.000;2023-01-05T23:04:14;10.30;95.50
9083;DHT22;4577;48.704;9.000;2023-01-05T23:06:41;10.20;95.50
9083;DHT22;4577;48.704;9.000;2023-01-05T23:09:10;10.30;95.70
9083;DHT22;4577;48.704;9.000;2023-01-05T23:11:39;10.30;95.50
9083;DHT22;4577;48.704;9.000;2023-01-05T23:19:07;10.30;95.60
9083;DHT22;4577;48.704;9.000;2023-01-05T23:21:33;10.30;95.50
9083;DHT22;4577;48.704;9.000;2023-01-05T23:26:26;10.30;95.50
9083;DHT22;4577;48.704;9.000;2023-01-05T23:28:52;10.10;95.40
9083;DHT22;4577;48.704;9.000;2023-01-05T23:31:18;10.40;95.40
9083;DHT22;4577;48.704;9.000;2023-01-05T23:33:44;10.80;95.50
9083;DHT22;4577;48.704;9.000;2023-01-05T23:36:12;10.40;95.40
9083;DHT22;4577;48.704;9.000;2023-01-05T23:41:06;10.30;95.30
9083;DHT22;4577;48.704;9.000;2023-01-05T23:43:35;10.30;95.30
9083;DHT22;4577;48.704;9.000;2023-01-05T23:46:07;10.30;95.30